EST,Max TemperatureF,Mean TemperatureF,Min TemperatureF,Max Dew PointF,MeanDew PointF,Min DewpointF,Max Humidity, Mean Humidity, Min Humidity, Max Sea Level PressureIn, Mean Sea Level PressureIn, Min Sea Level PressureIn, Max VisibilityMiles, Mean VisibilityMiles, Min VisibilityMiles, Max Wind SpeedMPH, Mean Wind SpeedMPH, Max Gust SpeedMPH,PrecipitationIn, CloudCover, Events, WindDirDegrees
2011-11-1,60,50,39,40,36,34,89,65,39,30.30,30.25,30.20,10,9,6,15,9,20,0.00,0,,169
2011-11-2,66,56,46,38,35,34,62,47,32,30.26,30.18,30.07,10,10,9,14,10,23,0.00,0,,172
2011-11-3,57,54,50,49,42,36,86,67,44,30.05,30.01,29.96,10,9,4,24,10,30,0.00,2,,99
2011-11-4,50,46,42,44,35,30,80,65,54,30.34,30.21,30.05,10,10,10,22,16,31,0.00,3,,58
2011-11-5,57,44,34,37,25,20,73,47,25,30.39,30.33,30.26,10,10,10,13,6,22,0.00,0,,130
2011-11-6,64,53,42,37,29,20,49,40,34,30.32,30.25,30.20,10,10,10,16,13,24,0.00,0,,166
2011-11-7,59,56,54,51,43,32,90,60,40,30.29,30.24,30.22,10,10,4,16,11,36,0.00,8,,199
2011-11-8,70,62,54,51,46,44,90,59,41,30.23,30.14,30.04,10,10,6,13,6,20,0.00,3,,163
2011-11-9,62,53,43,54,45,33,77,66,54,30.01,29.86,29.71,10,9,5,31,14,41,0.00,5,Rain,183
2011-11-10,48,42,35,34,31,24,81,66,47,30.00,29.93,29.87,10,10,4,21,16,32,0.00,5,Snow,233
2011-11-11,43,38,33,34,31,25,93,77,57,29.98,29.92,29.85,10,8,2,25,17,33,0.00,7,Rain-Snow,239
2011-11-12,61,49,37,35,31,25,60,47,38,29.94,29.90,29.85,10,10,10,20,15,30,0.00,0,,193
2011-11-13,66,60,54,50,39,29,58,47,37,29.87,29.73,29.62,10,10,10,24,17,34,0.00,4,,187
2011-11-14,68,60,51,59,54,50,100,87,59,29.72,29.64,29.51,10,7,0,24,15,34,0.00,7,Fog-Rain-Thunderstorm,228
2011-11-15,57,54,51,52,50,46,100,88,69,29.87,29.82,29.72,10,6,0,15,6,22,0.00,5,Fog,214
2011-11-16,55,48,41,50,42,29,89,75,51,30.04,29.89,29.81,10,9,5,24,10,31,0.00,5,,273
2011-11-17,43,38,33,28,23,19,81,57,38,30.25,30.10,30.01,10,9,1,32,19,46,0.00,6,Snow,268
2011-11-18,46,37,28,21,17,15,59,43,29,30.37,30.26,30.10,10,10,10,22,15,34,0.00,3,,190
2011-11-19,60,52,44,43,30,17,66,45,31,30.16,30.06,29.92,10,10,10,23,15,33,0.01,4,Rain,183
2011-11-20,63,54,43,51,44,35,83,72,55,30.29,30.13,29.92,10,10,7,25,16,38,0.00,8,,323
2011-11-21,46,42,39,37,35,34,83,74,66,30.34,30.30,30.27,10,10,10,16,10,,0.00,4,,59
2011-11-22,48,42,37,46,41,33,100,88,73,30.27,29.93,29.54,10,7,2,17,7,,0.80,6,Rain,63
2011-11-23,48,44,39,46,40,30,93,85,68,30.21,29.92,29.56,10,8,2,28,17,38,0.21,6,Rain,337
2011-11-24,54,46,39,40,38,34,89,76,57,30.27,30.23,30.18,10,8,3,21,12,20,0.00,3,,215
2011-11-25,61,52,44,38,36,34,74,54,41,30.17,30.10,30.04,10,10,10,18,15,32,0.00,0,,188
2011-11-26,64,56,48,45,39,31,59,51,40,30.12,30.05,29.95,10,10,10,17,11,24,0.00,1,,175
2011-11-27,60,53,45,53,48,42,100,84,53,30.00,29.88,29.79,10,7,2,22,14,31,0.58,7,Rain,220
2011-11-28,46,44,43,46,42,39,100,89,81,30.11,29.99,29.86,10,9,5,16,11,,0.21,8,Rain,46
2011-11-29,48,45,41,48,43,33,100,87,70,29.83,29.63,29.50,10,7,2,24,12,34,0.70,8,Rain,109
2011-11-30,41,36,30,37,32,25,93,81,62,30.19,29.82,29.54,10,7,2,31,19,44,0.11,6,Rain-Snow,280